Airport View

Enter AWOS ICAO identifier for current METAR.

ex. KFNL

KSFZ 100256Z AUTO 00000KT 10SM CLR 21/21 A3004 RMK AO2 SLP115 T02110206 51007

10 Jul 2020 03:18

Frequency: 120.025

Phone: 401-334-0324

Other Area AWOS: KPVD - KOQU - KTAN - KOWD

TAF KPVD 092339Z 1000/1024 19007KT P6SM SCT250 FM100400 17004KT P6SM OVC015 FM100500 17004KT 1 1/2SM BR OVC020 FM101200 11004KT 3SM BR OVC003 FM101500 12007KT P6SM OVC008 FM102000 13009KT P6SM -SHRA OVC020